sensor_id;sensor_type;location;lat;lon;timestamp;temperature;humidity
44565;DHT22;30275;51.822;-0.326;2022-11-20T00:00:55;5.00;99.90
44565;DHT22;30275;51.822;-0.326;2022-11-20T00:03:21;5.00;99.90
44565;DHT22;30275;51.822;-0.326;2022-11-20T00:05:46;5.00;99.90
44565;DHT22;30275;51.822;-0.326;2022-11-20T00:08:12;5.00;99.90
44565;DHT22;30275;51.822;-0.326;2022-11-20T00:10:40;5.10;99.90
44565;DHT22;30275;51.822;-0.326;2022-11-20T00:13:06;5.20;99.90
44565;DHT22;30275;51.822;-0.326;2022-11-20T00:15:33;5.20;99.90
44565;DHT22;30275;51.822;-0.326;2022-11-20T00:17:59;5.20;99.90
44565;DHT22;30275;51.822;-0.326;2022-11-20T00:20:24;5.20;99.90
44565;DHT22;30275;51.822;-0.326;2022-11-20T00:22:50;5.50;99.90
44565;DHT22;30275;51.822;-0.326;2022-11-20T00:25:16;5.60;99.90
44565;DHT22;30275;51.822;-0.326;2022-11-20T00:27:42;5.60;99.90
44565;DHT22;30275;51.822;-0.326;2022-11-20T00:30:08;5.40;99.90
44565;DHT22;30275;51.822;-0.326;2022-11-20T00:32:34;5.30;99.90
44565;DHT22;30275;51.822;-0.326;2022-11-20T00:35:00;5.50;99.90
44565;DHT22;30275;51.822;-0.326;2022-11-20T00:37:26;5.40;99.90
44565;DHT22;30275;51.822;-0.326;2022-11-20T00:39:51;5.30;99.90
44565;DHT22;30275;51.822;-0.326;2022-11-20T00:42:17;5.30;99.90
44565;DHT22;30275;51.822;-0.326;2022-11-20T00:44:42;5.20;99.90
44565;DHT22;30275;51.822;-0.326;2022-11-20T00:47:11;5.10;99.90
44565;DHT22;30275;51.822;-0.326;2022-11-20T00:49:37;5.10;99.90
44565;DHT22;30275;51.822;-0.326;2022-11-20T00:52:02;5.10;99.90
44565;DHT22;30275;51.822;-0.326;2022-11-20T00:54:28;5.10;99.90
44565;DHT22;30275;51.822;-0.326;2022-11-20T00:56:53;5.40;99.90
44565;DHT22;30275;51.822;-0.326;2022-11-20T00:59:19;5.40;99.90
44565;DHT22;30275;51.822;-0.326;2022-11-20T01:01:45;5.40;99.90
44565;DHT22;30275;51.822;-0.326;2022-11-20T01:04:10;5.70;99.90
44565;DHT22;30275;51.822;-0.326;2022-11-20T01:06:38;5.60;99.90
44565;DHT22;30275;51.822;-0.326;2022-11-20T01:09:10;5.70;99.90
44565;DHT22;30275;51.822;-0.326;2022-11-20T01:11:38;5.90;99.90
44565;DHT22;30275;51.822;-0.326;2022-11-20T01:14:06;6.00;99.90
44565;DHT22;30275;51.822;-0.326;2022-11-20T01:16:35;5.90;99.90
44565;DHT22;30275;51.822;-0.326;2022-11-20T01:19:03;6.00;99.90
44565;DHT22;30275;51.822;-0.326;2022-11-20T01:21:34;6.00;99.90
44565;DHT22;30275;51.822;-0.326;2022-11-20T01:24:01;5.90;99.90
44565;DHT22;30275;51.822;-0.326;2022-11-20T01:26:29;5.80;99.90
44565;DHT22;30275;51.822;-0.326;2022-11-20T01:28:56;5.90;99.90
44565;DHT22;30275;51.822;-0.326;2022-11-20T01:31:35;5.90;99.90
44565;DHT22;30275;51.822;-0.326;2022-11-20T01:34:06;5.90;99.90
44565;DHT22;30275;51.822;-0.326;2022-11-20T01:36:33;5.90;99.90
44565;DHT22;30275;51.822;-0.326;2022-11-20T01:39:04;6.10;99.90
44565;DHT22;30275;51.822;-0.326;2022-11-20T01:41:31;5.90;99.90
44565;DHT22;30275;51.822;-0.326;2022-11-20T01:44:19;5.70;99.90
44565;DHT22;30275;51.822;-0.326;2022-11-20T01:47:00;5.60;99.90
44565;DHT22;30275;51.822;-0.326;2022-11-20T01:49:59;5.70;99.90
44565;DHT22;30275;51.822;-0.326;2022-11-20T01:52:21;5.60;99.90
44565;DHT22;30275;51.822;-0.326;2022-11-20T01:54:54;5.50;99.90
44565;DHT22;30275;51.822;-0.326;2022-11-20T01:57:22;5.40;99.90
44565;DHT22;30275;51.822;-0.326;2022-11-20T02:00:07;5.40;99.90
44565;DHT22;30275;51.822;-0.326;2022-11-20T02:02:34;5.50;99.90
44565;DHT22;30275;51.822;-0.326;2022-11-20T02:05:05;5.60;99.90
44565;DHT22;30275;51.822;-0.326;2022-11-20T02:07:32;5.60;99.90
44565;DHT22;30275;51.822;-0.326;2022-11-20T02:09:58;5.70;99.90
44565;DHT22;30275;51.822;-0.326;2022-11-20T02:12:24;5.60;99.90
44565;DHT22;30275;51.822;-0.326;2022-11-20T02:15:21;5.60;99.90
44565;DHT22;30275;51.822;-0.326;2022-11-20T02:17:48;5.50;99.90
44565;DHT22;30275;51.822;-0.326;2022-11-20T02:20:13;5.60;99.90
44565;DHT22;30275;51.822;-0.326;2022-11-20T02:22:50;5.60;99.90
44565;DHT22;30275;51.822;-0.326;2022-11-20T02:25:20;5.60;99.90
44565;DHT22;30275;51.822;-0.326;2022-11-20T02:27:46;5.60;99.90
44565;DHT22;30275;51.822;-0.326;2022-11-20T02:30:12;5.80;99.90
44565;DHT22;30275;51.822;-0.326;2022-11-20T02:32:39;5.90;99.90
44565;DHT22;30275;51.822;-0.326;2022-11-20T02:37:52;5.90;99.90
44565;DHT22;30275;51.822;-0.326;2022-11-20T02:40:18;5.90;99.90
44565;DHT22;30275;51.822;-0.326;2022-11-20T02:42:44;6.10;99.90
44565;DHT22;30275;51.822;-0.326;2022-11-20T02:45:11;6.00;99.90
44565;DHT22;30275;51.822;-0.326;2022-11-20T02:47:37;6.20;99.90
44565;DHT22;30275;51.822;-0.326;2022-11-20T02:50:04;6.20;99.90
44565;DHT22;30275;51.822;-0.326;2022-11-20T02:52:30;6.30;99.90
44565;DHT22;30275;51.822;-0.326;2022-11-20T02:54:55;6.20;99.90
44565;DHT22;30275;51.822;-0.326;2022-11-20T02:57:21;6.10;99.90
44565;DHT22;30275;51.822;-0.326;2022-11-20T02:59:47;6.00;99.90
44565;DHT22;30275;51.822;-0.326;2022-11-20T03:02:12;6.00;99.90
44565;DHT22;30275;51.822;-0.326;2022-11-20T03:04:38;6.10;99.90
44565;DHT22;30275;51.822;-0.326;2022-11-20T03:07:04;6.00;99.90
44565;DHT22;30275;51.822;-0.326;2022-11-20T03:09:30;5.90;99.90
44565;DHT22;30275;51.822;-0.326;2022-11-20T03:11:56;6.00;99.90
44565;DHT22;30275;51.822;-0.326;2022-11-20T03:14:21;6.20;99.90
44565;DHT22;30275;51.822;-0.326;2022-11-20T03:16:47;6.20;99.90
44565;DHT22;30275;51.822;-0.326;2022-11-20T03:19:13;6.30;99.90
44565;DHT22;30275;51.822;-0.326;2022-11-20T03:21:39;6.20;99.90
44565;DHT22;30275;51.822;-0.326;2022-11-20T03:24:05;6.10;99.90
44565;DHT22;30275;51.822;-0.326;2022-11-20T03:26:31;6.10;99.90
44565;DHT22;30275;51.822;-0.326;2022-11-20T03:28:58;6.00;99.90
44565;DHT22;30275;51.822;-0.326;2022-11-20T03:31:29;5.80;99.90
44565;DHT22;30275;51.822;-0.326;2022-11-20T03:33:56;5.70;99.90
44565;DHT22;30275;51.822;-0.326;2022-11-20T03:36:22;5.70;99.90
44565;DHT22;30275;51.822;-0.326;2022-11-20T03:38:53;5.60;99.90
44565;DHT22;30275;51.822;-0.326;2022-11-20T03:41:30;5.70;99.90
44565;DHT22;30275;51.822;-0.326;2022-11-20T03:43:58;5.60;99.90
44565;DHT22;30275;51.822;-0.326;2022-11-20T03:46:25;5.60;99.90
44565;DHT22;30275;51.822;-0.326;2022-11-20T03:48:51;5.60;99.90
44565;DHT22;30275;51.822;-0.326;2022-11-20T03:51:21;5.60;99.90
44565;DHT22;30275;51.822;-0.326;2022-11-20T03:53:48;5.60;99.90
44565;DHT22;30275;51.822;-0.326;2022-11-20T03:56:17;5.60;99.90
44565;DHT22;30275;51.822;-0.326;2022-11-20T03:58:43;5.60;99.90
44565;DHT22;30275;51.822;-0.326;2022-11-20T04:01:11;5.60;99.90
44565;DHT22;30275;51.822;-0.326;2022-11-20T04:03:38;5.60;99.90
44565;DHT22;30275;51.822;-0.326;2022-11-20T04:06:09;5.60;99.90
44565;DHT22;30275;51.822;-0.326;2022-11-20T04:08:35;5.60;99.90
44565;DHT22;30275;51.822;-0.326;2022-11-20T04:13:36;5.60;99.90
44565;DHT22;30275;51.822;-0.326;2022-11-20T04:16:02;5.60;99.90
44565;DHT22;30275;51.822;-0.326;2022-11-20T04:18:28;5.60;99.90
44565;DHT22;30275;51.822;-0.326;2022-11-20T04:20:53;5.60;99.90
44565;DHT22;30275;51.822;-0.326;2022-11-20T04:23:19;5.60;99.90
44565;DHT22;30275;51.822;-0.326;2022-11-20T04:25:44;5.60;99.90
44565;DHT22;30275;51.822;-0.326;2022-11-20T04:28:10;5.60;99.90
44565;DHT22;30275;51.822;-0.326;2022-11-20T04:30:35;5.60;99.90
44565;DHT22;30275;51.822;-0.326;2022-11-20T04:33:01;5.60;99.90
44565;DHT22;30275;51.822;-0.326;2022-11-20T04:35:27;5.70;99.90
44565;DHT22;30275;51.822;-0.326;2022-11-20T04:37:52;5.70;99.90
44565;DHT22;30275;51.822;-0.326;2022-11-20T04:40:18;5.70;99.90
44565;DHT22;30275;51.822;-0.326;2022-11-20T04:42:43;5.70;99.90
44565;DHT22;30275;51.822;-0.326;2022-11-20T04:45:09;5.70;99.90
44565;DHT22;30275;51.822;-0.326;2022-11-20T04:47:35;5.70;99.90
44565;DHT22;30275;51.822;-0.326;2022-11-20T04:50:03;5.80;99.90
44565;DHT22;30275;51.822;-0.326;2022-11-20T04:52:29;5.80;99.90
44565;DHT22;30275;51.822;-0.326;2022-11-20T04:54:55;5.80;99.90
44565;DHT22;30275;51.822;-0.326;2022-11-20T04:57:20;5.90;99.90
44565;DHT22;30275;51.822;-0.326;2022-11-20T04:59:46;5.80;99.90
44565;DHT22;30275;51.822;-0.326;2022-11-20T05:02:12;5.80;99.90
44565;DHT22;30275;51.822;-0.326;2022-11-20T05:04:37;5.80;99.90
44565;DHT22;30275;51.822;-0.326;2022-11-20T05:07:03;5.80;99.90
44565;DHT22;30275;51.822;-0.326;2022-11-20T05:09:30;5.90;99.90
44565;DHT22;30275;51.822;-0.326;2022-11-20T05:11:55;5.90;99.90
44565;DHT22;30275;51.822;-0.326;2022-11-20T05:14:21;5.90;99.90
44565;DHT22;30275;51.822;-0.326;2022-11-20T05:16:46;5.90;99.90
44565;DHT22;30275;51.822;-0.326;2022-11-20T05:19:12;5.90;99.90
44565;DHT22;30275;51.822;-0.326;2022-11-20T05:21:38;5.90;99.90
44565;DHT22;30275;51.822;-0.326;2022-11-20T05:24:03;6.00;99.90
44565;DHT22;30275;51.822;-0.326;2022-11-20T05:26:30;6.00;99.90
44565;DHT22;30275;51.822;-0.326;2022-11-20T05:28:55;6.00;99.90
44565;DHT22;30275;51.822;-0.326;2022-11-20T05:31:23;6.00;99.90
44565;DHT22;30275;51.822;-0.326;2022-11-20T05:33:49;6.00;99.90
44565;DHT22;30275;51.822;-0.326;2022-11-20T05:36:15;6.10;99.90
44565;DHT22;30275;51.822;-0.326;2022-11-20T05:38:42;6.10;99.90
44565;DHT22;30275;51.822;-0.326;2022-11-20T05:41:15;6.10;99.90
44565;DHT22;30275;51.822;-0.326;2022-11-20T05:43:43;6.10;99.90
44565;DHT22;30275;51.822;-0.326;2022-11-20T05:46:10;6.10;99.90
44565;DHT22;30275;51.822;-0.326;2022-11-20T05:48:37;6.10;99.90
44565;DHT22;30275;51.822;-0.326;2022-11-20T05:51:05;6.20;99.90
44565;DHT22;30275;51.822;-0.326;2022-11-20T05:53:32;6.20;99.90
44565;DHT22;30275;51.822;-0.326;2022-11-20T05:56:06;6.30;99.90
44565;DHT22;30275;51.822;-0.326;2022-11-20T05:58:36;6.30;99.90
44565;DHT22;30275;51.822;-0.326;2022-11-20T06:01:13;6.30;99.90
44565;DHT22;30275;51.822;-0.326;2022-11-20T06:03:40;6.30;99.90
44565;DHT22;30275;51.822;-0.326;2022-11-20T06:06:08;6.30;99.90
44565;DHT22;30275;51.822;-0.326;2022-11-20T06:08:34;6.40;99.90
44565;DHT22;30275;51.822;-0.326;2022-11-20T06:11:06;6.40;99.90
44565;DHT22;30275;51.822;-0.326;2022-11-20T06:13:32;6.40;99.90
44565;DHT22;30275;51.822;-0.326;2022-11-20T06:15:58;6.50;99.90
44565;DHT22;30275;51.822;-0.326;2022-11-20T06:18:26;6.50;99.90
44565;DHT22;30275;51.822;-0.326;2022-11-20T06:21:20;6.60;99.90
44565;DHT22;30275;51.822;-0.326;2022-11-20T06:23:45;6.80;99.90
44565;DHT22;30275;51.822;-0.326;2022-11-20T06:26:13;6.90;99.90
44565;DHT22;30275;51.822;-0.326;2022-11-20T06:28:39;7.00;99.90
44565;DHT22;30275;51.822;-0.326;2022-11-20T06:31:05;7.00;99.90
44565;DHT22;30275;51.822;-0.326;2022-11-20T06:33:31;7.00;99.90
44565;DHT22;30275;51.822;-0.326;2022-11-20T06:35:58;6.90;99.90
44565;DHT22;30275;51.822;-0.326;2022-11-20T06:38:25;7.00;99.90
44565;DHT22;30275;51.822;-0.326;2022-11-20T06:40:51;7.10;99.90
44565;DHT22;30275;51.822;-0.326;2022-11-20T06:43:17;7.10;99.90
44565;DHT22;30275;51.822;-0.326;2022-11-20T06:45:42;7.10;99.90
44565;DHT22;30275;51.822;-0.326;2022-11-20T06:48:08;7.10;99.90
44565;DHT22;30275;51.822;-0.326;2022-11-20T06:50:36;7.10;99.90
44565;DHT22;30275;51.822;-0.326;2022-11-20T06:53:02;7.20;99.90
44565;DHT22;30275;51.822;-0.326;2022-11-20T06:55:29;7.20;99.90
44565;DHT22;30275;51.822;-0.326;2022-11-20T06:57:54;7.20;99.90
44565;DHT22;30275;51.822;-0.326;2022-11-20T07:00:20;7.20;99.90
44565;DHT22;30275;51.822;-0.326;2022-11-20T07:02:46;7.30;99.90
44565;DHT22;30275;51.822;-0.326;2022-11-20T07:05:11;7.30;99.90
44565;DHT22;30275;51.822;-0.326;2022-11-20T07:07:37;7.10;99.90
44565;DHT22;30275;51.822;-0.326;2022-11-20T07:10:03;7.20;99.90
44565;DHT22;30275;51.822;-0.326;2022-11-20T07:12:28;7.10;99.90
44565;DHT22;30275;51.822;-0.326;2022-11-20T07:14:54;7.20;99.90
44565;DHT22;30275;51.822;-0.326;2022-11-20T07:17:20;7.10;99.90
44565;DHT22;30275;51.822;-0.326;2022-11-20T07:19:45;7.10;99.90
44565;DHT22;30275;51.822;-0.326;2022-11-20T07:22:11;7.10;99.90
44565;DHT22;30275;51.822;-0.326;2022-11-20T07:24:36;7.20;99.90
44565;DHT22;30275;51.822;-0.326;2022-11-20T07:27:02;7.10;99.90
44565;DHT22;30275;51.822;-0.326;2022-11-20T07:29:29;7.10;99.90
44565;DHT22;30275;51.822;-0.326;2022-11-20T07:31:54;7.20;99.90
44565;DHT22;30275;51.822;-0.326;2022-11-20T07:34:21;7.20;99.90
44565;DHT22;30275;51.822;-0.326;2022-11-20T07:36:47;7.10;99.90
44565;DHT22;30275;51.822;-0.326;2022-11-20T07:39:12;7.10;99.90
44565;DHT22;30275;51.822;-0.326;2022-11-20T07:41:38;7.20;99.90
44565;DHT22;30275;51.822;-0.326;2022-11-20T07:44:04;7.30;99.90
44565;DHT22;30275;51.822;-0.326;2022-11-20T07:46:29;7.30;99.90
44565;DHT22;30275;51.822;-0.326;2022-11-20T07:48:55;7.30;99.90
44565;DHT22;30275;51.822;-0.326;2022-11-20T07:51:20;7.40;99.90
44565;DHT22;30275;51.822;-0.326;2022-11-20T07:53:46;7.50;99.90
44565;DHT22;30275;51.822;-0.326;2022-11-20T07:56:12;7.40;99.90
44565;DHT22;30275;51.822;-0.326;2022-11-20T07:58:40;7.30;99.90
44565;DHT22;30275;51.822;-0.326;2022-11-20T08:01:07;7.40;99.90
44565;DHT22;30275;51.822;-0.326;2022-11-20T08:03:32;7.50;99.90
44565;DHT22;30275;51.822;-0.326;2022-11-20T08:05:59;7.40;99.90
44565;DHT22;30275;51.822;-0.326;2022-11-20T08:08:26;7.40;99.90
44565;DHT22;30275;51.822;-0.326;2022-11-20T08:10:51;7.40;99.90
44565;DHT22;30275;51.822;-0.326;2022-11-20T08:13:17;7.50;99.90
44565;DHT22;30275;51.822;-0.326;2022-11-20T08:16:09;7.50;99.90
44565;DHT22;30275;51.822;-0.326;2022-11-20T08:18:34;7.50;99.90
44565;DHT22;30275;51.822;-0.326;2022-11-20T08:21:03;7.50;99.90
44565;DHT22;30275;51.822;-0.326;2022-11-20T08:23:29;7.50;99.90
44565;DHT22;30275;51.822;-0.326;2022-11-20T08:25:55;7.50;99.90
44565;DHT22;30275;51.822;-0.326;2022-11-20T08:28:21;7.60;99.90
44565;DHT22;30275;51.822;-0.326;2022-11-20T08:30:46;7.60;99.90
44565;DHT22;30275;51.822;-0.326;2022-11-20T08:33:12;7.60;99.90
44565;DHT22;30275;51.822;-0.326;2022-11-20T08:35:38;7.60;99.90
44565;DHT22;30275;51.822;-0.326;2022-11-20T08:38:05;7.70;99.90
44565;DHT22;30275;51.822;-0.326;2022-11-20T08:40:31;7.70;99.90
44565;DHT22;30275;51.822;-0.326;2022-11-20T08:42:57;7.90;99.90
44565;DHT22;30275;51.822;-0.326;2022-11-20T08:45:23;8.20;99.90
44565;DHT22;30275;51.822;-0.326;2022-11-20T08:47:49;8.60;99.90
44565;DHT22;30275;51.822;-0.326;2022-11-20T08:50:15;9.00;99.90
44565;DHT22;30275;51.822;-0.326;2022-11-20T08:52:42;9.00;99.90
44565;DHT22;30275;51.822;-0.326;2022-11-20T08:55:08;9.10;99.90
44565;DHT22;30275;51.822;-0.326;2022-11-20T08:57:35;9.30;99.90
44565;DHT22;30275;51.822;-0.326;2022-11-20T09:00:03;9.10;99.90
44565;DHT22;30275;51.822;-0.326;2022-11-20T09:02:29;9.00;99.90
44565;DHT22;30275;51.822;-0.326;2022-11-20T09:04:54;9.00;99.90
44565;DHT22;30275;51.822;-0.326;2022-11-20T09:07:20;9.30;99.90
44565;DHT22;30275;51.822;-0.326;2022-11-20T09:09:46;9.60;99.90
44565;DHT22;30275;51.822;-0.326;2022-11-20T09:12:12;9.90;99.90
44565;DHT22;30275;51.822;-0.326;2022-11-20T09:14:38;10.20;99.90
44565;DHT22;30275;51.822;-0.326;2022-11-20T09:17:04;10.40;99.90
44565;DHT22;30275;51.822;-0.326;2022-11-20T09:19:30;10.40;99.90
44565;DHT22;30275;51.822;-0.326;2022-11-20T09:21:56;10.50;99.90
44565;DHT22;30275;51.822;-0.326;2022-11-20T09:24:22;10.40;99.90
44565;DHT22;30275;51.822;-0.326;2022-11-20T09:26:48;10.00;99.90
44565;DHT22;30275;51.822;-0.326;2022-11-20T09:29:14;9.70;99.90
44565;DHT22;30275;51.822;-0.326;2022-11-20T09:31:40;9.20;99.90
44565;DHT22;30275;51.822;-0.326;2022-11-20T09:34:10;9.20;99.90
44565;DHT22;30275;51.822;-0.326;2022-11-20T09:36:37;10.20;99.90
44565;DHT22;30275;51.822;-0.326;2022-11-20T09:39:02;11.80;99.90
44565;DHT22;30275;51.822;-0.326;2022-11-20T09:56:08;16.70;99.90
44565;DHT22;30275;51.822;-0.326;2022-11-20T09:58:42;16.70;99.90
44565;DHT22;30275;51.822;-0.326;2022-11-20T10:01:23;17.20;99.90
44565;DHT22;30275;51.822;-0.326;2022-11-20T10:04:01;18.30;99.90
44565;DHT22;30275;51.822;-0.326;2022-11-20T10:06:32;19.10;99.70
44565;DHT22;30275;51.822;-0.326;2022-11-20T10:09:16;19.20;99.00
44565;DHT22;30275;51.822;-0.326;2022-11-20T10:11:59;18.60;98.70
44565;DHT22;30275;51.822;-0.326;2022-11-20T10:22:48;19.40;98.00
44565;DHT22;30275;51.822;-0.326;2022-11-20T10:25:16;19.40;97.90
44565;DHT22;30275;51.822;-0.326;2022-11-20T10:27:50;18.50;98.00
44565;DHT22;30275;51.822;-0.326;2022-11-20T10:30:21;18.40;99.40
44565;DHT22;30275;51.822;-0.326;2022-11-20T10:33:17;18.80;98.00
44565;DHT22;30275;51.822;-0.326;2022-11-20T10:36:09;18.60;98.00
44565;DHT22;30275;51.822;-0.326;2022-11-20T10:38:40;19.90;96.70
44565;DHT22;30275;51.822;-0.326;2022-11-20T10:41:17;19.50;95.20
44565;DHT22;30275;51.822;-0.326;2022-11-20T10:46:39;19.00;96.10
44565;DHT22;30275;51.822;-0.326;2022-11-20T10:49:15;19.50;95.50
44565;DHT22;30275;51.822;-0.326;2022-11-20T11:02:39;16.70;99.70
44565;DHT22;30275;51.822;-0.326;2022-11-20T11:07:41;16.10;99.90
44565;DHT22;30275;51.822;-0.326;2022-11-20T11:10:19;16.10;99.90
44565;DHT22;30275;51.822;-0.326;2022-11-20T11:12:47;15.00;99.90
44565;DHT22;30275;51.822;-0.326;2022-11-20T11:15:45;15.10;99.90
44565;DHT22;30275;51.822;-0.326;2022-11-20T11:18:11;14.70;99.90
44565;DHT22;30275;51.822;-0.326;2022-11-20T11:20:37;15.10;99.90
44565;DHT22;30275;51.822;-0.326;2022-11-20T11:23:03;15.00;99.90
44565;DHT22;30275;51.822;-0.326;2022-11-20T11:25:35;14.40;99.90
44565;DHT22;30275;51.822;-0.326;2022-11-20T11:28:21;14.60;99.90
44565;DHT22;30275;51.822;-0.326;2022-11-20T11:30:47;15.10;99.90
44565;DHT22;30275;51.822;-0.326;2022-11-20T11:33:30;15.50;99.90
44565;DHT22;30275;51.822;-0.326;2022-11-20T11:35:59;16.10;99.90
44565;DHT22;30275;51.822;-0.326;2022-11-20T11:38:35;16.10;99.90
44565;DHT22;30275;51.822;-0.326;2022-11-20T11:41:03;16.10;99.90
44565;DHT22;30275;51.822;-0.326;2022-11-20T11:43:32;15.60;99.90
44565;DHT22;30275;51.822;-0.326;2022-11-20T11:49:15;14.40;99.90
44565;DHT22;30275;51.822;-0.326;2022-11-20T11:54:23;14.50;99.90
44565;DHT22;30275;51.822;-0.326;2022-11-20T11:56:49;14.10;99.90
44565;DHT22;30275;51.822;-0.326;2022-11-20T12:02:37;14.30;99.90
44565;DHT22;30275;51.822;-0.326;2022-11-20T12:08:05;14.70;99.90
44565;DHT22;30275;51.822;-0.326;2022-11-20T12:10:56;14.50;99.90
44565;DHT22;30275;51.822;-0.326;2022-11-20T12:13:37;14.80;99.90
44565;DHT22;30275;51.822;-0.326;2022-11-20T12:16:05;14.90;99.90
44565;DHT22;30275;51.822;-0.326;2022-11-20T12:18:31;15.00;99.90
44565;DHT22;30275;51.822;-0.326;2022-11-20T12:27:05;15.10;99.90
44565;DHT22;30275;51.822;-0.326;2022-11-20T12:41:12;13.70;99.90
44565;DHT22;30275;51.822;-0.326;2022-11-20T12:52:38;13.10;99.90
44565;DHT22;30275;51.822;-0.326;2022-11-20T12:58:26;12.00;99.90
44565;DHT22;30275;51.822;-0.326;2022-11-20T13:04:34;11.60;99.90
44565;DHT22;30275;51.822;-0.326;2022-11-20T13:07:11;11.60;99.90
44565;DHT22;30275;51.822;-0.326;2022-11-20T13:09:43;11.40;99.90
44565;DHT22;30275;51.822;-0.326;2022-11-20T13:12:24;11.40;99.90
44565;DHT22;30275;51.822;-0.326;2022-11-20T13:15:22;11.40;99.90
44565;DHT22;30275;51.822;-0.326;2022-11-20T13:17:59;11.30;99.90
44565;DHT22;30275;51.822;-0.326;2022-11-20T13:20:25;11.30;99.90
44565;DHT22;30275;51.822;-0.326;2022-11-20T13:22:52;11.20;99.90
44565;DHT22;30275;51.822;-0.326;2022-11-20T13:27:56;11.00;99.90
44565;DHT22;30275;51.822;-0.326;2022-11-20T13:30:25;10.80;99.90
44565;DHT22;30275;51.822;-0.326;2022-11-20T13:32:55;10.60;99.90
44565;DHT22;30275;51.822;-0.326;2022-11-20T13:35:30;10.60;99.90
44565;DHT22;30275;51.822;-0.326;2022-11-20T13:40:34;10.80;99.90
44565;DHT22;30275;51.822;-0.326;2022-11-20T13:43:08;10.80;99.90
44565;DHT22;30275;51.822;-0.326;2022-11-20T13:45:36;10.70;99.90
44565;DHT22;30275;51.822;-0.326;2022-11-20T13:48:21;10.70;99.90
44565;DHT22;30275;51.822;-0.326;2022-11-20T13:51:02;10.60;99.90
44565;DHT22;30275;51.822;-0.326;2022-11-20T14:01:33;10.50;99.90
44565;DHT22;30275;51.822;-0.326;2022-11-20T14:04:06;10.60;99.90
44565;DHT22;30275;51.822;-0.326;2022-11-20T14:06:40;10.70;99.90
44565;DHT22;30275;51.822;-0.326;2022-11-20T14:09:12;10.70;99.90
44565;DHT22;30275;51.822;-0.326;2022-11-20T14:11:46;10.70;99.90
44565;DHT22;30275;51.822;-0.326;2022-11-20T14:14:20;10.70;99.90
44565;DHT22;30275;51.822;-0.326;2022-11-20T14:16:47;10.80;99.90
44565;DHT22;30275;51.822;-0.326;2022-11-20T14:19:29;10.80;99.90
44565;DHT22;30275;51.822;-0.326;2022-11-20T14:22:23;10.70;99.90
44565;DHT22;30275;51.822;-0.326;2022-11-20T14:27:26;10.50;99.90
44565;DHT22;30275;51.822;-0.326;2022-11-20T14:29:52;10.40;99.90
44565;DHT22;30275;51.822;-0.326;2022-11-20T14:32:19;10.40;99.90
44565;DHT22;30275;51.822;-0.326;2022-11-20T14:34:48;10.40;99.90
44565;DHT22;30275;51.822;-0.326;2022-11-20T14:37:24;10.50;99.90
44565;DHT22;30275;51.822;-0.326;2022-11-20T14:39:55;10.40;99.90
44565;DHT22;30275;51.822;-0.326;2022-11-20T14:42:28;10.30;99.90
44565;DHT22;30275;51.822;-0.326;2022-11-20T14:45:00;10.20;99.90
44565;DHT22;30275;51.822;-0.326;2022-11-20T14:47:29;10.00;99.90
44565;DHT22;30275;51.822;-0.326;2022-11-20T14:49:57;10.00;99.90
44565;DHT22;30275;51.822;-0.326;2022-11-20T14:52:27;9.90;99.90
44565;DHT22;30275;51.822;-0.326;2022-11-20T14:54:57;9.90;99.90
44565;DHT22;30275;51.822;-0.326;2022-11-20T15:02:33;9.60;99.90
44565;DHT22;30275;51.822;-0.326;2022-11-20T15:05:00;9.50;99.90
44565;DHT22;30275;51.822;-0.326;2022-11-20T15:07:33;9.30;99.90
44565;DHT22;30275;51.822;-0.326;2022-11-20T15:10:11;9.00;99.90
44565;DHT22;30275;51.822;-0.326;2022-11-20T15:12:46;8.70;99.90
44565;DHT22;30275;51.822;-0.326;2022-11-20T15:15:16;8.50;99.90
44565;DHT22;30275;51.822;-0.326;2022-11-20T15:17:42;8.30;99.90
44565;DHT22;30275;51.822;-0.326;2022-11-20T15:20:16;8.20;99.90
44565;DHT22;30275;51.822;-0.326;2022-11-20T15:22:42;8.10;99.90
44565;DHT22;30275;51.822;-0.326;2022-11-20T15:25:15;8.10;99.90
44565;DHT22;30275;51.822;-0.326;2022-11-20T15:27:43;8.10;99.90
44565;DHT22;30275;51.822;-0.326;2022-11-20T15:30:17;8.10;99.90
44565;DHT22;30275;51.822;-0.326;2022-11-20T15:32:44;8.10;99.90
44565;DHT22;30275;51.822;-0.326;2022-11-20T15:35:10;8.10;99.90
44565;DHT22;30275;51.822;-0.326;2022-11-20T15:37:37;8.10;99.90
44565;DHT22;30275;51.822;-0.326;2022-11-20T15:40:04;8.00;99.90
44565;DHT22;30275;51.822;-0.326;2022-11-20T15:42:33;8.00;99.90
44565;DHT22;30275;51.822;-0.326;2022-11-20T15:45:00;8.00;99.90
44565;DHT22;30275;51.822;-0.326;2022-11-20T15:47:28;8.00;99.90
44565;DHT22;30275;51.822;-0.326;2022-11-20T15:49:55;8.00;99.90
44565;DHT22;30275;51.822;-0.326;2022-11-20T15:52:20;7.90;99.90
44565;DHT22;30275;51.822;-0.326;2022-11-20T15:54:46;8.00;99.90
44565;DHT22;30275;51.822;-0.326;2022-11-20T15:57:12;8.10;99.90
44565;DHT22;30275;51.822;-0.326;2022-11-20T15:59:38;8.20;99.90
44565;DHT22;30275;51.822;-0.326;2022-11-20T16:02:13;8.20;99.90
44565;DHT22;30275;51.822;-0.326;2022-11-20T16:04:39;8.20;99.90
44565;DHT22;30275;51.822;-0.326;2022-11-20T16:07:05;8.20;99.90
44565;DHT22;30275;51.822;-0.326;2022-11-20T16:09:31;8.10;99.90
44565;DHT22;30275;51.822;-0.326;2022-11-20T16:11:56;8.00;99.90
44565;DHT22;30275;51.822;-0.326;2022-11-20T16:14:25;7.90;99.90
44565;DHT22;30275;51.822;-0.326;2022-11-20T16:17:09;7.90;99.90
44565;DHT22;30275;51.822;-0.326;2022-11-20T16:19:35;7.80;99.90
44565;DHT22;30275;51.822;-0.326;2022-11-20T16:22:01;7.70;99.90
44565;DHT22;30275;51.822;-0.326;2022-11-20T16:24:27;7.60;99.90
44565;DHT22;30275;51.822;-0.326;2022-11-20T16:26:56;7.60;99.90
44565;DHT22;30275;51.822;-0.326;2022-11-20T16:29:22;7.50;99.90
44565;DHT22;30275;51.822;-0.326;2022-11-20T16:31:47;7.50;99.90
44565;DHT22;30275;51.822;-0.326;2022-11-20T16:34:15;7.50;99.90
44565;DHT22;30275;51.822;-0.326;2022-11-20T16:36:44;7.40;99.90
44565;DHT22;30275;51.822;-0.326;2022-11-20T16:39:10;7.40;99.90
44565;DHT22;30275;51.822;-0.326;2022-11-20T16:41:37;7.40;99.90
44565;DHT22;30275;51.822;-0.326;2022-11-20T16:44:07;7.40;99.90
44565;DHT22;30275;51.822;-0.326;2022-11-20T16:46:33;7.30;99.90
44565;DHT22;30275;51.822;-0.326;2022-11-20T16:49:01;7.30;99.90
44565;DHT22;30275;51.822;-0.326;2022-11-20T16:51:29;7.20;99.90
44565;DHT22;30275;51.822;-0.326;2022-11-20T16:53:56;7.20;99.90
44565;DHT22;30275;51.822;-0.326;2022-11-20T16:56:25;7.20;99.90
44565;DHT22;30275;51.822;-0.326;2022-11-20T16:58:53;7.20;99.90
44565;DHT22;30275;51.822;-0.326;2022-11-20T17:01:21;7.20;99.90
44565;DHT22;30275;51.822;-0.326;2022-11-20T17:04:00;7.10;99.90
44565;DHT22;30275;51.822;-0.326;2022-11-20T17:06:34;7.10;99.90
44565;DHT22;30275;51.822;-0.326;2022-11-20T17:09:00;7.10;99.90
44565;DHT22;30275;51.822;-0.326;2022-11-20T17:11:26;7.00;99.90
44565;DHT22;30275;51.822;-0.326;2022-11-20T17:13:54;7.00;99.90
44565;DHT22;30275;51.822;-0.326;2022-11-20T17:16:22;6.90;99.90
44565;DHT22;30275;51.822;-0.326;2022-11-20T17:18:48;6.90;99.90
44565;DHT22;30275;51.822;-0.326;2022-11-20T17:21:14;6.80;99.90
44565;DHT22;30275;51.822;-0.326;2022-11-20T17:23:42;6.90;99.90
44565;DHT22;30275;51.822;-0.326;2022-11-20T17:26:09;6.90;99.90
44565;DHT22;30275;51.822;-0.326;2022-11-20T17:28:36;6.80;99.90